sensor_id;sensor_type;location;lat;lon;timestamp;P1;durP1;ratioP1;P2;durP2;ratioP2
40058;SDS011;25763;49.972;8.568;2023-07-13T00:00:52;11.20;;;10.50;;
40058;SDS011;25763;49.972;8.568;2023-07-13T00:03:18;10.65;;;9.95;;
40058;SDS011;25763;49.972;8.568;2023-07-13T00:05:43;10.57;;;9.98;;
40058;SDS011;25763;49.972;8.568;2023-07-13T00:08:08;11.80;;;10.88;;
40058;SDS011;25763;49.972;8.568;2023-07-13T00:10:34;12.30;;;11.57;;
40058;SDS011;25763;49.972;8.568;2023-07-13T00:13:04;10.20;;;9.60;;
40058;SDS011;25763;49.972;8.568;2023-07-13T00:15:29;10.75;;;10.05;;
40058;SDS011;25763;49.972;8.568;2023-07-13T00:17:56;10.57;;;9.95;;
40058;SDS011;25763;49.972;8.568;2023-07-13T00:20:22;12.15;;;11.38;;
40058;SDS011;25763;49.972;8.568;2023-07-13T00:22:50;12.10;;;11.30;;
40058;SDS011;25763;49.972;8.568;2023-07-13T00:25:18;10.38;;;9.77;;
40058;SDS011;25763;49.972;8.568;2023-07-13T00:27:44;11.50;;;10.80;;
40058;SDS011;25763;49.972;8.568;2023-07-13T00:30:13;12.38;;;11.65;;
40058;SDS011;25763;49.972;8.568;2023-07-13T00:32:38;12.15;;;11.45;;
40058;SDS011;25763;49.972;8.568;2023-07-13T00:35:04;14.07;;;12.90;;
40058;SDS011;25763;49.972;8.568;2023-07-13T00:37:29;12.52;;;11.82;;
40058;SDS011;25763;49.972;8.568;2023-07-13T00:39:55;13.10;;;12.30;;
40058;SDS011;25763;49.972;8.568;2023-07-13T00:42:20;15.57;;;12.30;;
40058;SDS011;25763;49.972;8.568;2023-07-13T00:45:02;14.15;;;12.85;;
40058;SDS011;25763;49.972;8.568;2023-07-13T00:47:30;13.18;;;12.38;;
40058;SDS011;25763;49.972;8.568;2023-07-13T00:49:56;12.48;;;11.77;;
40058;SDS011;25763;49.972;8.568;2023-07-13T00:52:21;13.20;;;12.40;;
40058;SDS011;25763;49.972;8.568;2023-07-13T00:54:47;13.50;;;12.65;;
40058;SDS011;25763;49.972;8.568;2023-07-13T00:57:14;14.93;;;13.93;;
40058;SDS011;25763;49.972;8.568;2023-07-13T00:59:43;12.48;;;11.77;;
40058;SDS011;25763;49.972;8.568;2023-07-13T01:02:12;13.63;;;12.83;;
40058;SDS011;25763;49.972;8.568;2023-07-13T01:04:37;13.18;;;12.38;;
40058;SDS011;25763;49.972;8.568;2023-07-13T01:07:03;12.55;;;11.82;;
40058;SDS011;25763;49.972;8.568;2023-07-13T01:09:31;12.93;;;12.13;;
40058;SDS011;25763;49.972;8.568;2023-07-13T01:11:56;13.00;;;12.20;;
40058;SDS011;25763;49.972;8.568;2023-07-13T01:14:22;12.77;;;11.30;;
40058;SDS011;25763;49.972;8.568;2023-07-13T01:16:47;11.32;;;10.63;;
40058;SDS011;25763;49.972;8.568;2023-07-13T01:19:18;11.38;;;10.68;;
40058;SDS011;25763;49.972;8.568;2023-07-13T01:22:01;11.02;;;10.35;;
40058;SDS011;25763;49.972;8.568;2023-07-13T01:24:33;11.48;;;10.77;;
40058;SDS011;25763;49.972;8.568;2023-07-13T01:27:03;11.65;;;10.95;;
40058;SDS011;25763;49.972;8.568;2023-07-13T01:29:31;11.50;;;10.80;;
40058;SDS011;25763;49.972;8.568;2023-07-13T01:31:58;11.60;;;10.90;;
40058;SDS011;25763;49.972;8.568;2023-07-13T01:34:25;12.65;;;11.90;;
40058;SDS011;25763;49.972;8.568;2023-07-13T01:36:51;12.90;;;12.15;;
40058;SDS011;25763;49.972;8.568;2023-07-13T01:39:18;14.00;;;13.20;;
40058;SDS011;25763;49.972;8.568;2023-07-13T01:41:45;14.45;;;13.65;;
40058;SDS011;25763;49.972;8.568;2023-07-13T01:44:11;15.85;;;14.95;;
40058;SDS011;25763;49.972;8.568;2023-07-13T01:46:36;15.52;;;14.63;;
40058;SDS011;25763;49.972;8.568;2023-07-13T01:49:01;15.32;;;14.43;;
40058;SDS011;25763;49.972;8.568;2023-07-13T01:51:27;15.07;;;14.20;;
40058;SDS011;25763;49.972;8.568;2023-07-13T01:53:52;18.00;;;17.00;;
40058;SDS011;25763;49.972;8.568;2023-07-13T01:56:18;16.23;;;15.13;;
40058;SDS011;25763;49.972;8.568;2023-07-13T01:58:44;17.65;;;16.65;;
40058;SDS011;25763;49.972;8.568;2023-07-13T02:01:10;19.67;;;18.58;;
40058;SDS011;25763;49.972;8.568;2023-07-13T02:03:35;21.33;;;20.17;;
40058;SDS011;25763;49.972;8.568;2023-07-13T02:06:00;27.23;;;25.77;;
40058;SDS011;25763;49.972;8.568;2023-07-13T02:08:26;27.30;;;25.80;;
40058;SDS011;25763;49.972;8.568;2023-07-13T02:10:51;29.70;;;28.15;;
40058;SDS011;25763;49.972;8.568;2023-07-13T02:13:16;34.08;;;32.28;;
40058;SDS011;25763;49.972;8.568;2023-07-13T02:15:42;37.22;;;35.33;;
40058;SDS011;25763;49.972;8.568;2023-07-13T02:18:07;43.17;;;40.97;;
40058;SDS011;25763;49.972;8.568;2023-07-13T02:20:32;39.67;;;37.60;;
40058;SDS011;25763;49.972;8.568;2023-07-13T02:22:58;42.20;;;40.05;;
40058;SDS011;25763;49.972;8.568;2023-07-13T02:25:23;45.35;;;42.90;;
40058;SDS011;25763;49.972;8.568;2023-07-13T02:27:50;41.15;;;39.03;;
40058;SDS011;25763;49.972;8.568;2023-07-13T02:30:15;45.08;;;42.72;;
40058;SDS011;25763;49.972;8.568;2023-07-13T02:32:41;45.28;;;42.95;;
40058;SDS011;25763;49.972;8.568;2023-07-13T02:35:06;55.60;;;52.80;;
40058;SDS011;25763;49.972;8.568;2023-07-13T02:37:31;57.38;;;54.45;;
40058;SDS011;25763;49.972;8.568;2023-07-13T02:39:57;55.45;;;52.65;;
40058;SDS011;25763;49.972;8.568;2023-07-13T02:42:22;52.47;;;49.83;;
40058;SDS011;25763;49.972;8.568;2023-07-13T02:44:47;61.08;;;58.03;;
40058;SDS011;25763;49.972;8.568;2023-07-13T02:47:14;56.40;;;53.35;;
40058;SDS011;25763;49.972;8.568;2023-07-13T02:49:40;70.65;;;67.13;;
40058;SDS011;25763;49.972;8.568;2023-07-13T02:52:05;68.15;;;64.72;;
40058;SDS011;25763;49.972;8.568;2023-07-13T02:54:31;76.25;;;72.43;;
40058;SDS011;25763;49.972;8.568;2023-07-13T02:56:56;75.75;;;71.95;;
40058;SDS011;25763;49.972;8.568;2023-07-13T02:59:22;84.65;;;80.22;;
40058;SDS011;25763;49.972;8.568;2023-07-13T03:01:47;76.88;;;72.97;;
40058;SDS011;25763;49.972;8.568;2023-07-13T03:04:12;86.15;;;81.85;;
40058;SDS011;25763;49.972;8.568;2023-07-13T03:06:38;93.93;;;89.25;;
40058;SDS011;25763;49.972;8.568;2023-07-13T03:09:03;88.60;;;84.07;;
40058;SDS011;25763;49.972;8.568;2023-07-13T03:11:29;90.28;;;85.78;;
40058;SDS011;25763;49.972;8.568;2023-07-13T03:13:54;95.70;;;90.80;;
40058;SDS011;25763;49.972;8.568;2023-07-13T03:16:20;73.85;;;70.18;;
40058;SDS011;25763;49.972;8.568;2023-07-13T03:18:46;93.72;;;89.00;;
40058;SDS011;25763;49.972;8.568;2023-07-13T03:21:12;74.65;;;70.85;;
40058;SDS011;25763;49.972;8.568;2023-07-13T03:23:37;82.78;;;78.40;;
40058;SDS011;25763;49.972;8.568;2023-07-13T03:26:07;103.80;;;98.53;;
40058;SDS011;25763;49.972;8.568;2023-07-13T03:28:44;97.55;;;92.70;;
40058;SDS011;25763;49.972;8.568;2023-07-13T03:31:11;106.93;;;101.60;;
40058;SDS011;25763;49.972;8.568;2023-07-13T03:33:38;88.55;;;84.00;;
40058;SDS011;25763;49.972;8.568;2023-07-13T03:36:05;110.03;;;104.47;;
40058;SDS011;25763;49.972;8.568;2023-07-13T03:38:31;104.05;;;98.78;;
40058;SDS011;25763;49.972;8.568;2023-07-13T03:40:56;104.50;;;99.22;;
40058;SDS011;25763;49.972;8.568;2023-07-13T03:43:22;119.82;;;113.80;;
40058;SDS011;25763;49.972;8.568;2023-07-13T03:45:47;104.40;;;98.88;;
40058;SDS011;25763;49.972;8.568;2023-07-13T03:48:13;101.50;;;96.35;;
40058;SDS011;25763;49.972;8.568;2023-07-13T03:50:39;119.65;;;113.60;;
40058;SDS011;25763;49.972;8.568;2023-07-13T03:53:05;116.72;;;110.75;;
40058;SDS011;25763;49.972;8.568;2023-07-13T03:55:30;122.53;;;116.32;;
40058;SDS011;25763;49.972;8.568;2023-07-13T03:58:01;124.97;;;118.68;;
40058;SDS011;25763;49.972;8.568;2023-07-13T04:03:12;104.43;;;99.20;;
40058;SDS011;25763;49.972;8.568;2023-07-13T04:05:37;127.50;;;121.07;;
40058;SDS011;25763;49.972;8.568;2023-07-13T04:08:05;136.82;;;129.90;;
40058;SDS011;25763;49.972;8.568;2023-07-13T04:10:31;144.80;;;137.48;;
40058;SDS011;25763;49.972;8.568;2023-07-13T04:12:56;143.15;;;135.90;;
40058;SDS011;25763;49.972;8.568;2023-07-13T04:15:21;141.50;;;134.40;;
40058;SDS011;25763;49.972;8.568;2023-07-13T04:17:47;151.13;;;142.13;;
40058;SDS011;25763;49.972;8.568;2023-07-13T04:20:12;153.57;;;145.73;;
40058;SDS011;25763;49.972;8.568;2023-07-13T04:22:37;154.40;;;146.73;;
40058;SDS011;25763;49.972;8.568;2023-07-13T04:25:03;158.73;;;150.82;;
40058;SDS011;25763;49.972;8.568;2023-07-13T04:27:30;167.55;;;158.82;;
40058;SDS011;25763;49.972;8.568;2023-07-13T04:29:55;173.00;;;164.32;;
40058;SDS011;25763;49.972;8.568;2023-07-13T04:32:20;171.07;;;162.10;;
40058;SDS011;25763;49.972;8.568;2023-07-13T04:34:46;170.45;;;161.93;;
40058;SDS011;25763;49.972;8.568;2023-07-13T04:37:11;161.02;;;153.02;;
40058;SDS011;25763;49.972;8.568;2023-07-13T04:39:36;176.00;;;167.23;;
40058;SDS011;25763;49.972;8.568;2023-07-13T04:42:02;172.05;;;163.55;;
40058;SDS011;25763;49.972;8.568;2023-07-13T04:44:28;153.45;;;145.77;;
40058;SDS011;25763;49.972;8.568;2023-07-13T04:46:54;180.25;;;171.25;;
40058;SDS011;25763;49.972;8.568;2023-07-13T04:49:19;164.45;;;156.30;;
40058;SDS011;25763;49.972;8.568;2023-07-13T04:51:45;167.77;;;159.48;;
40058;SDS011;25763;49.972;8.568;2023-07-13T04:54:10;105.28;;;99.95;;
40058;SDS011;25763;49.972;8.568;2023-07-13T04:56:35;86.30;;;82.00;;
40058;SDS011;25763;49.972;8.568;2023-07-13T04:59:01;98.70;;;93.78;;
40058;SDS011;25763;49.972;8.568;2023-07-13T05:01:27;52.10;;;49.45;;
40058;SDS011;25763;49.972;8.568;2023-07-13T05:03:52;72.82;;;69.18;;
40058;SDS011;25763;49.972;8.568;2023-07-13T05:06:17;74.25;;;70.40;;
40058;SDS011;25763;49.972;8.568;2023-07-13T05:08:43;59.30;;;56.35;;
40058;SDS011;25763;49.972;8.568;2023-07-13T05:11:08;53.95;;;51.20;;
40058;SDS011;25763;49.972;8.568;2023-07-13T05:13:34;45.90;;;43.55;;
40058;SDS011;25763;49.972;8.568;2023-07-13T05:16:00;50.78;;;48.17;;
40058;SDS011;25763;49.972;8.568;2023-07-13T05:18:27;43.15;;;40.95;;
40058;SDS011;25763;49.972;8.568;2023-07-13T05:21:01;40.53;;;38.47;;
40058;SDS011;25763;49.972;8.568;2023-07-13T05:23:28;48.90;;;46.35;;
40058;SDS011;25763;49.972;8.568;2023-07-13T05:25:54;52.75;;;50.10;;
40058;SDS011;25763;49.972;8.568;2023-07-13T05:28:21;34.58;;;32.78;;
40058;SDS011;25763;49.972;8.568;2023-07-13T05:30:47;29.67;;;28.15;;
40058;SDS011;25763;49.972;8.568;2023-07-13T05:33:13;15.93;;;15.02;;
40058;SDS011;25763;49.972;8.568;2023-07-13T05:35:38;10.77;;;10.07;;
40058;SDS011;25763;49.972;8.568;2023-07-13T05:38:03;11.07;;;10.10;;
40058;SDS011;25763;49.972;8.568;2023-07-13T05:40:29;11.07;;;10.38;;
40058;SDS011;25763;49.972;8.568;2023-07-13T05:42:54;11.05;;;10.35;;
40058;SDS011;25763;49.972;8.568;2023-07-13T05:45:19;9.90;;;9.30;;
40058;SDS011;25763;49.972;8.568;2023-07-13T05:47:44;12.13;;;10.98;;
40058;SDS011;25763;49.972;8.568;2023-07-13T05:50:10;11.82;;;11.13;;
40058;SDS011;25763;49.972;8.568;2023-07-13T05:52:35;13.05;;;11.63;;
40058;SDS011;25763;49.972;8.568;2023-07-13T05:55:00;11.52;;;10.82;;
40058;SDS011;25763;49.972;8.568;2023-07-13T05:57:26;13.02;;;12.23;;
40058;SDS011;25763;49.972;8.568;2023-07-13T05:59:51;12.93;;;12.18;;
40058;SDS011;25763;49.972;8.568;2023-07-13T06:02:16;14.35;;;12.93;;
40058;SDS011;25763;49.972;8.568;2023-07-13T06:04:42;12.88;;;12.13;;
40058;SDS011;25763;49.972;8.568;2023-07-13T06:07:07;14.18;;;13.15;;
40058;SDS011;25763;49.972;8.568;2023-07-13T06:09:32;12.18;;;11.48;;
40058;SDS011;25763;49.972;8.568;2023-07-13T06:11:58;15.25;;;14.25;;
40058;SDS011;25763;49.972;8.568;2023-07-13T06:14:23;16.08;;;15.18;;
40058;SDS011;25763;49.972;8.568;2023-07-13T06:16:48;12.35;;;11.65;;
40058;SDS011;25763;49.972;8.568;2023-07-13T06:19:14;18.52;;;17.42;;
40058;SDS011;25763;49.972;8.568;2023-07-13T06:21:39;16.63;;;15.73;;
40058;SDS011;25763;49.972;8.568;2023-07-13T06:24:04;18.00;;;16.52;;
40058;SDS011;25763;49.972;8.568;2023-07-13T06:26:30;15.65;;;14.75;;
40058;SDS011;25763;49.972;8.568;2023-07-13T06:28:56;17.35;;;16.33;;
40058;SDS011;25763;49.972;8.568;2023-07-13T06:31:22;14.48;;;13.68;;
40058;SDS011;25763;49.972;8.568;2023-07-13T06:33:47;15.65;;;14.65;;
40058;SDS011;25763;49.972;8.568;2023-07-13T06:36:12;16.00;;;15.07;;
40058;SDS011;25763;49.972;8.568;2023-07-13T06:38:38;13.63;;;12.82;;
40058;SDS011;25763;49.972;8.568;2023-07-13T06:41:04;18.95;;;17.85;;
40058;SDS011;25763;49.972;8.568;2023-07-13T06:43:30;16.95;;;16.02;;
40058;SDS011;25763;49.972;8.568;2023-07-13T06:45:56;19.00;;;17.92;;
40058;SDS011;25763;49.972;8.568;2023-07-13T06:48:22;17.17;;;16.23;;
40058;SDS011;25763;49.972;8.568;2023-07-13T06:50:48;18.65;;;17.60;;
40058;SDS011;25763;49.972;8.568;2023-07-13T06:53:15;22.67;;;21.48;;
40058;SDS011;25763;49.972;8.568;2023-07-13T06:55:43;23.02;;;21.80;;
40058;SDS011;25763;49.972;8.568;2023-07-13T06:58:08;24.58;;;23.05;;
40058;SDS011;25763;49.972;8.568;2023-07-13T07:00:34;33.85;;;32.13;;
40058;SDS011;25763;49.972;8.568;2023-07-13T07:02:59;25.92;;;24.52;;
40058;SDS011;25763;49.972;8.568;2023-07-13T07:05:24;25.77;;;24.38;;
40058;SDS011;25763;49.972;8.568;2023-07-13T07:07:50;31.00;;;27.73;;
40058;SDS011;25763;49.972;8.568;2023-07-13T07:10:17;25.73;;;24.35;;
40058;SDS011;25763;49.972;8.568;2023-07-13T07:12:43;24.50;;;23.13;;
40058;SDS011;25763;49.972;8.568;2023-07-13T07:15:09;25.17;;;23.88;;
40058;SDS011;25763;49.972;8.568;2023-07-13T07:17:35;28.60;;;27.10;;
40058;SDS011;25763;49.972;8.568;2023-07-13T07:20:00;28.50;;;27.00;;
40058;SDS011;25763;49.972;8.568;2023-07-13T07:22:25;31.38;;;29.75;;
40058;SDS011;25763;49.972;8.568;2023-07-13T07:24:52;45.17;;;42.88;;
40058;SDS011;25763;49.972;8.568;2023-07-13T07:27:18;49.63;;;47.10;;
40058;SDS011;25763;49.972;8.568;2023-07-13T07:29:44;54.03;;;51.33;;
40058;SDS011;25763;49.972;8.568;2023-07-13T07:32:09;42.30;;;40.17;;
40058;SDS011;25763;49.972;8.568;2023-07-13T07:34:34;44.72;;;42.33;;
40058;SDS011;25763;49.972;8.568;2023-07-13T07:37:00;68.82;;;65.38;;
40058;SDS011;25763;49.972;8.568;2023-07-13T07:39:26;86.10;;;81.88;;
40058;SDS011;25763;49.972;8.568;2023-07-13T07:41:52;86.97;;;82.72;;
40058;SDS011;25763;49.972;8.568;2023-07-13T07:44:17;74.25;;;70.57;;
40058;SDS011;25763;49.972;8.568;2023-07-13T07:46:43;64.40;;;61.20;;
40058;SDS011;25763;49.972;8.568;2023-07-13T07:49:08;69.47;;;66.07;;
40058;SDS011;25763;49.972;8.568;2023-07-13T07:51:33;107.20;;;101.95;;
40058;SDS011;25763;49.972;8.568;2023-07-13T07:53:59;113.95;;;108.30;;
40058;SDS011;25763;49.972;8.568;2023-07-13T07:56:24;115.68;;;109.97;;
40058;SDS011;25763;49.972;8.568;2023-07-13T07:58:50;113.90;;;108.10;;
40058;SDS011;25763;49.972;8.568;2023-07-13T08:01:15;101.15;;;96.20;;
40058;SDS011;25763;49.972;8.568;2023-07-13T08:03:41;85.53;;;80.38;;
40058;SDS011;25763;49.972;8.568;2023-07-13T08:06:06;103.75;;;98.65;;
40058;SDS011;25763;49.972;8.568;2023-07-13T08:08:32;102.28;;;97.22;;
40058;SDS011;25763;49.972;8.568;2023-07-13T08:10:57;82.45;;;78.40;;
40058;SDS011;25763;49.972;8.568;2023-07-13T08:13:22;107.15;;;101.88;;
40058;SDS011;25763;49.972;8.568;2023-07-13T08:15:48;53.13;;;50.42;;
40058;SDS011;25763;49.972;8.568;2023-07-13T08:18:14;57.55;;;54.63;;
40058;SDS011;25763;49.972;8.568;2023-07-13T08:20:40;45.60;;;43.30;;
40058;SDS011;25763;49.972;8.568;2023-07-13T08:23:06;42.80;;;40.60;;
40058;SDS011;25763;49.972;8.568;2023-07-13T08:25:34;46.22;;;43.88;;
40058;SDS011;25763;49.972;8.568;2023-07-13T08:27:59;53.78;;;51.08;;
40058;SDS011;25763;49.972;8.568;2023-07-13T08:30:25;46.88;;;44.47;;
40058;SDS011;25763;49.972;8.568;2023-07-13T08:32:50;60.67;;;57.28;;
40058;SDS011;25763;49.972;8.568;2023-07-13T08:35:16;45.58;;;43.25;;
40058;SDS011;25763;49.972;8.568;2023-07-13T08:37:42;57.72;;;54.85;;
40058;SDS011;25763;49.972;8.568;2023-07-13T08:40:10;47.03;;;43.42;;
40058;SDS011;25763;49.972;8.568;2023-07-13T08:42:39;165.02;;;156.98;;
40058;SDS011;25763;49.972;8.568;2023-07-13T08:45:20;124.57;;;118.30;;
40058;SDS011;25763;49.972;8.568;2023-07-13T08:48:04;163.55;;;155.50;;
40058;SDS011;25763;49.972;8.568;2023-07-13T08:50:39;144.68;;;137.55;;
40058;SDS011;25763;49.972;8.568;2023-07-13T08:53:14;51.15;;;48.58;;
40058;SDS011;25763;49.972;8.568;2023-07-13T08:55:40;160.57;;;152.75;;
40058;SDS011;25763;49.972;8.568;2023-07-13T08:58:09;134.20;;;127.55;;
40058;SDS011;25763;49.972;8.568;2023-07-13T09:00:55;137.63;;;130.88;;
40058;SDS011;25763;49.972;8.568;2023-07-13T09:04:06;76.03;;;72.25;;
40058;SDS011;25763;49.972;8.568;2023-07-13T09:06:45;106.95;;;101.68;;
40058;SDS011;25763;49.972;8.568;2023-07-13T09:09:29;140.73;;;133.77;;
40058;SDS011;25763;49.972;8.568;2023-07-13T09:14:50;160.15;;;152.27;;
40058;SDS011;25763;49.972;8.568;2023-07-13T09:17:23;175.23;;;166.65;;
40058;SDS011;25763;49.972;8.568;2023-07-13T09:20:02;126.80;;;120.55;;
40058;SDS011;25763;49.972;8.568;2023-07-13T09:22:34;194.18;;;184.68;;
40058;SDS011;25763;49.972;8.568;2023-07-13T09:25:11;184.48;;;175.50;;
40058;SDS011;25763;49.972;8.568;2023-07-13T09:27:49;116.35;;;110.63;;
40058;SDS011;25763;49.972;8.568;2023-07-13T09:30:23;105.95;;;100.75;;
40058;SDS011;25763;49.972;8.568;2023-07-13T09:32:55;127.57;;;121.10;;
40058;SDS011;25763;49.972;8.568;2023-07-13T09:35:24;102.18;;;97.18;;
40058;SDS011;25763;49.972;8.568;2023-07-13T09:37:56;62.28;;;59.15;;
40058;SDS011;25763;49.972;8.568;2023-07-13T09:40:36;73.85;;;70.20;;
40058;SDS011;25763;49.972;8.568;2023-07-13T09:43:15;66.70;;;63.38;;
40058;SDS011;25763;49.972;8.568;2023-07-13T09:45:44;65.07;;;61.83;;
40058;SDS011;25763;49.972;8.568;2023-07-13T09:48:11;63.33;;;60.20;;
40058;SDS011;25763;49.972;8.568;2023-07-13T09:50:38;69.68;;;66.20;;
40058;SDS011;25763;49.972;8.568;2023-07-13T09:53:04;54.78;;;52.00;;
40058;SDS011;25763;49.972;8.568;2023-07-13T09:55:41;54.78;;;52.03;;
40058;SDS011;25763;49.972;8.568;2023-07-13T10:00:40;51.78;;;49.13;;
40058;SDS011;25763;49.972;8.568;2023-07-13T10:03:20;57.95;;;55.05;;
40058;SDS011;25763;49.972;8.568;2023-07-13T10:05:49;54.75;;;52.00;;
40058;SDS011;25763;49.972;8.568;2023-07-13T10:08:17;55.15;;;52.40;;
40058;SDS011;25763;49.972;8.568;2023-07-13T10:10:46;55.80;;;53.00;;
40058;SDS011;25763;49.972;8.568;2023-07-13T10:13:52;56.38;;;53.55;;
40058;SDS011;25763;49.972;8.568;2023-07-13T10:16:21;53.80;;;51.10;;
40058;SDS011;25763;49.972;8.568;2023-07-13T10:19:00;60.55;;;57.55;;
40058;SDS011;25763;49.972;8.568;2023-07-13T10:21:35;54.80;;;52.05;;
40058;SDS011;25763;49.972;8.568;2023-07-13T10:24:17;51.72;;;49.13;;
40058;SDS011;25763;49.972;8.568;2023-07-13T10:26:47;54.40;;;51.67;;
40058;SDS011;25763;49.972;8.568;2023-07-13T10:29:17;51.20;;;48.65;;
40058;SDS011;25763;49.972;8.568;2023-07-13T10:31:44;59.92;;;56.90;;
40058;SDS011;25763;49.972;8.568;2023-07-13T10:34:13;62.95;;;59.65;;
40058;SDS011;25763;49.972;8.568;2023-07-13T10:36:43;57.47;;;54.58;;
40058;SDS011;25763;49.972;8.568;2023-07-13T10:39:15;63.95;;;60.75;;
40058;SDS011;25763;49.972;8.568;2023-07-13T10:41:44;50.05;;;47.53;;
40058;SDS011;25763;49.972;8.568;2023-07-13T10:44:20;49.58;;;47.08;;
40058;SDS011;25763;49.972;8.568;2023-07-13T10:46:51;49.13;;;46.63;;
40058;SDS011;25763;49.972;8.568;2023-07-13T10:49:19;52.50;;;49.85;;
40058;SDS011;25763;49.972;8.568;2023-07-13T10:51:45;54.53;;;51.78;;
40058;SDS011;25763;49.972;8.568;2023-07-13T10:56:39;65.45;;;62.15;;
40058;SDS011;25763;49.972;8.568;2023-07-13T11:04:25;43.88;;;41.60;;
40058;SDS011;25763;49.972;8.568;2023-07-13T11:06:58;58.28;;;55.38;;
40058;SDS011;25763;49.972;8.568;2023-07-13T11:09:36;52.40;;;49.78;;
40058;SDS011;25763;49.972;8.568;2023-07-13T11:12:09;36.58;;;34.67;;
40058;SDS011;25763;49.972;8.568;2023-07-13T11:27:52;33.22;;;31.50;;
40058;SDS011;25763;49.972;8.568;2023-07-13T11:33:17;23.05;;;21.85;;
40058;SDS011;25763;49.972;8.568;2023-07-13T11:36:03;27.15;;;25.65;;
40058;SDS011;25763;49.972;8.568;2023-07-13T11:38:31;29.05;;;27.55;;
40058;SDS011;25763;49.972;8.568;2023-07-13T11:41:02;27.02;;;24.77;;
40058;SDS011;25763;49.972;8.568;2023-07-13T11:43:31;34.97;;;33.17;;
40058;SDS011;25763;49.972;8.568;2023-07-13T11:45:59;26.73;;;25.33;;
40058;SDS011;25763;49.972;8.568;2023-07-13T11:48:37;26.77;;;25.38;;
40058;SDS011;25763;49.972;8.568;2023-07-13T11:51:04;24.25;;;22.95;;
40058;SDS011;25763;49.972;8.568;2023-07-13T11:53:49;23.92;;;22.63;;
40058;SDS011;25763;49.972;8.568;2023-07-13T11:56:16;25.65;;;24.27;;
40058;SDS011;25763;49.972;8.568;2023-07-13T11:58:42;25.02;;;23.70;;
40058;SDS011;25763;49.972;8.568;2023-07-13T12:01:10;29.45;;;27.95;;
40058;SDS011;25763;49.972;8.568;2023-07-13T12:03:43;27.92;;;26.48;;
40058;SDS011;25763;49.972;8.568;2023-07-13T12:06:20;25.35;;;24.05;;
40058;SDS011;25763;49.972;8.568;2023-07-13T12:08:50;26.40;;;25.00;;
40058;SDS011;25763;49.972;8.568;2023-07-13T12:11:16;25.80;;;24.42;;
40058;SDS011;25763;49.972;8.568;2023-07-13T12:13:43;26.90;;;25.50;;
40058;SDS011;25763;49.972;8.568;2023-07-13T12:16:14;24.00;;;22.70;;
40058;SDS011;25763;49.972;8.568;2023-07-13T12:18:42;25.42;;;24.13;;
40058;SDS011;25763;49.972;8.568;2023-07-13T12:21:13;25.10;;;23.70;;
40058;SDS011;25763;49.972;8.568;2023-07-13T12:23:42;25.10;;;23.70;;
40058;SDS011;25763;49.972;8.568;2023-07-13T12:26:09;20.73;;;19.63;;
40058;SDS011;25763;49.972;8.568;2023-07-13T12:28:37;23.42;;;22.02;;
40058;SDS011;25763;49.972;8.568;2023-07-13T12:31:20;23.25;;;22.02;;
40058;SDS011;25763;49.972;8.568;2023-07-13T12:33:48;23.15;;;21.90;;
40058;SDS011;25763;49.972;8.568;2023-07-13T12:36:20;25.83;;;24.48;;
40058;SDS011;25763;49.972;8.568;2023-07-13T12:38:46;26.30;;;24.90;;
40058;SDS011;25763;49.972;8.568;2023-07-13T12:41:12;23.27;;;22.05;;
40058;SDS011;25763;49.972;8.568;2023-07-13T12:43:37;22.33;;;21.13;;
40058;SDS011;25763;49.972;8.568;2023-07-13T12:46:20;22.80;;;21.60;;
40058;SDS011;25763;49.972;8.568;2023-07-13T12:48:50;24.55;;;23.17;;
40058;SDS011;25763;49.972;8.568;2023-07-13T12:51:17;27.55;;;26.10;;
40058;SDS011;25763;49.972;8.568;2023-07-13T12:53:48;28.25;;;26.75;;
40058;SDS011;25763;49.972;8.568;2023-07-13T12:56:19;28.38;;;26.88;;
40058;SDS011;25763;49.972;8.568;2023-07-13T13:01:19;27.42;;;26.00;;
40058;SDS011;25763;49.972;8.568;2023-07-13T13:03:51;28.05;;;26.55;;
40058;SDS011;25763;49.972;8.568;2023-07-13T13:08:45;37.90;;;35.80;;
40058;SDS011;25763;49.972;8.568;2023-07-13T13:11:13;41.60;;;39.50;;
40058;SDS011;25763;49.972;8.568;2023-07-13T13:13:41;49.92;;;47.40;;
40058;SDS011;25763;49.972;8.568;2023-07-13T13:16:20;47.08;;;44.67;;
40058;SDS011;25763;49.972;8.568;2023-07-13T13:18:46;40.70;;;38.60;;
40058;SDS011;25763;49.972;8.568;2023-07-13T13:21:12;43.05;;;40.85;;
40058;SDS011;25763;49.972;8.568;2023-07-13T13:23:37;40.05;;;38.00;;
40058;SDS011;25763;49.972;8.568;2023-07-13T13:26:05;40.38;;;38.25;;
40058;SDS011;25763;49.972;8.568;2023-07-13T13:28:34;49.03;;;46.53;;
40058;SDS011;25763;49.972;8.568;2023-07-13T13:30:59;49.80;;;47.28;;
40058;SDS011;25763;49.972;8.568;2023-07-13T13:33:24;47.10;;;44.72;;
40058;SDS011;25763;49.972;8.568;2023-07-13T13:35:50;49.67;;;47.17;;
40058;SDS011;25763;49.972;8.568;2023-07-13T13:38:16;47.25;;;44.85;;
40058;SDS011;25763;49.972;8.568;2023-07-13T13:40:45;51.30;;;48.70;;
40058;SDS011;25763;49.972;8.568;2023-07-13T13:43:13;37.72;;;35.83;;
40058;SDS011;25763;49.972;8.568;2023-07-13T13:45:40;41.08;;;38.97;;
40058;SDS011;25763;49.972;8.568;2023-07-13T13:48:06;43.85;;;41.65;;
40058;SDS011;25763;49.972;8.568;2023-07-13T13:50:38;49.47;;;46.97;;
40058;SDS011;25763;49.972;8.568;2023-07-13T13:53:04;48.97;;;46.47;;
40058;SDS011;25763;49.972;8.568;2023-07-13T13:55:29;44.97;;;42.70;;
40058;SDS011;25763;49.972;8.568;2023-07-13T13:57:54;43.25;;;41.05;;
40058;SDS011;25763;49.972;8.568;2023-07-13T14:00:20;48.38;;;45.95;;
40058;SDS011;25763;49.972;8.568;2023-07-13T14:02:46;41.15;;;39.03;;
40058;SDS011;25763;49.972;8.568;2023-07-13T14:05:16;50.20;;;47.70;;
40058;SDS011;25763;49.972;8.568;2023-07-13T14:07:47;44.35;;;42.10;;
40058;SDS011;25763;49.972;8.568;2023-07-13T14:10:15;48.42;;;46.03;;
40058;SDS011;25763;49.972;8.568;2023-07-13T14:12:44;42.95;;;40.75;;
40058;SDS011;25763;49.972;8.568;2023-07-13T14:15:17;46.95;;;44.55;;
40058;SDS011;25763;49.972;8.568;2023-07-13T14:17:45;38.60;;;36.60;;
40058;SDS011;25763;49.972;8.568;2023-07-13T14:20:11;45.10;;;42.80;;
40058;SDS011;25763;49.972;8.568;2023-07-13T14:22:37;47.22;;;44.78;;
40058;SDS011;25763;49.972;8.568;2023-07-13T14:25:03;51.30;;;48.70;;
40058;SDS011;25763;49.972;8.568;2023-07-13T14:27:28;41.92;;;39.60;;
40058;SDS011;25763;49.972;8.568;2023-07-13T14:29:54;40.78;;;38.67;;
40058;SDS011;25763;49.972;8.568;2023-07-13T14:32:19;51.13;;;48.55;;
40058;SDS011;25763;49.972;8.568;2023-07-13T14:34:45;39.42;;;37.42;;
40058;SDS011;25763;49.972;8.568;2023-07-13T14:37:13;43.17;;;40.97;;
40058;SDS011;25763;49.972;8.568;2023-07-13T14:39:42;37.20;;;35.30;;
40058;SDS011;25763;49.972;8.568;2023-07-13T14:42:08;34.47;;;32.67;;
40058;SDS011;25763;49.972;8.568;2023-07-13T14:44:35;35.47;;;33.60;;
40058;SDS011;25763;49.972;8.568;2023-07-13T14:47:01;41.63;;;39.45;;
40058;SDS011;25763;49.972;8.568;2023-07-13T14:49:47;42.97;;;40.78;;
40058;SDS011;25763;49.972;8.568;2023-07-13T14:52:17;40.83;;;38.72;;
40058;SDS011;25763;49.972;8.568;2023-07-13T14:54:44;37.08;;;35.17;;
40058;SDS011;25763;49.972;8.568;2023-07-13T14:57:15;36.85;;;34.83;;
40058;SDS011;25763;49.972;8.568;2023-07-13T14:59:42;40.13;;;38.10;;